KRKW/RKW METAR and TAF weather

Enter ICAO airport designator
Station Type Date Time Source
KRKW METAR 2019/08/18 19:55 UTC NOAA

KRKW 181955Z AUTO 03007G14KT 350V090 10SM SCT055 BKN065 BKN075 28/18 A3005 RMK A01


Station Type Date Time Source
KRKW Decoded METAR 2019/08/18 19:55 UTC NOAA

Station name not available
Aug 18, 2019 - 03:55 PM EDT / 2019.08.18 1955 UTC
Wind: from the NNE (030 degrees) at 8 MPH (7 KT) gusting to 16 MPH (14 KT) (direction variable):0
Visibility: 10 mile(s):0
Sky conditions: mostly cloudy
Temperature: 82 F (28 C)
Dew Point: 64 F (18 C)
Relative Humidity: 54%
Pressure (altimeter): 30.05 in. Hg (1017 hPa)
ob: KRKW 181955Z AUTO 03007G14KT 350V090 10SM SCT055 BKN065 BKN075 28/18 A3005 RMK A01
cycle: 20

Station Type Date Time Source
KRKW TAF 2009/08/31 19:50 UTC NOAA

METAR KRKW 311950Z AUTO VRB05KT 10SM CLR 25/13 A3010
RMK AO1 T02500133 $

Example: see airport list